createdAt,value
2019-04-21T00:00:44.694Z,23.47
2019-04-21T00:03:25.634Z,24.67
2019-04-21T00:06:09.477Z,25.57
2019-04-21T00:08:50.884Z,22.62
2019-04-21T00:11:30.859Z,28.25
2019-04-21T00:13:52.605Z,23.32
2019-04-21T00:16:29.066Z,24.77
2019-04-21T00:19:19.641Z,23.55
2019-04-21T00:21:58.115Z,25.15
2019-04-21T00:24:41.365Z,33.70
2019-04-21T00:27:22.955Z,30.65
2019-04-21T00:29:58.148Z,37.60
2019-04-21T00:32:28.160Z,30.05
2019-04-21T00:35:00.383Z,28.83
2019-04-21T00:37:48.070Z,28.25
2019-04-21T00:40:24.005Z,32.35
2019-04-21T00:43:01.327Z,26.42
2019-04-21T00:45:31.367Z,28.23
2019-04-21T00:48:16.620Z,27.07
2019-04-21T00:51:05.471Z,30.37
2019-04-21T00:53:37.130Z,29.18
2019-04-21T00:56:11.910Z,30.20
2019-04-21T00:58:47.755Z,27.93
2019-04-21T01:01:14.950Z,28.87
2019-04-21T01:03:58.114Z,26.00
2019-04-21T01:06:35.183Z,24.05
2019-04-21T01:09:06.375Z,25.70
2019-04-21T01:11:44.466Z,27.27
2019-04-21T01:14:29.804Z,24.07
2019-04-21T01:16:57.727Z,31.37
2019-04-21T01:19:25.133Z,22.90
2019-04-21T01:21:47.490Z,28.55
2019-04-21T01:24:28.909Z,23.75
2019-04-21T01:27:06.452Z,25.62
2019-04-21T01:29:55.094Z,25.48
2019-04-21T01:32:29.566Z,25.20
2019-04-21T01:35:08.577Z,27.15
2019-04-21T01:37:52.437Z,23.80
2019-04-21T01:40:22.878Z,25.32
2019-04-21T01:43:01.134Z,25.92
2019-04-21T01:45:26.726Z,38.48
2019-04-21T01:48:03.563Z,29.65
2019-04-21T01:50:41.196Z,31.52
2019-04-21T01:53:30.683Z,30.30
2019-04-21T01:58:38.050Z,31.17
2019-04-21T02:01:19.355Z,28.70
2019-04-21T02:03:55.874Z,29.82
2019-04-21T02:06:33.457Z,33.02
2019-04-21T02:09:10.120Z,28.23
2019-04-21T02:11:52.050Z,28.15
2019-04-21T02:14:31.772Z,32.00
2019-04-21T02:16:59.595Z,31.02
2019-04-21T02:19:31.238Z,32.13
2019-04-21T02:22:04.911Z,28.92
2019-04-21T02:25:08.281Z,32.90
2019-04-21T02:27:26.514Z,30.80
2019-04-21T02:30:00.052Z,31.17
2019-04-21T02:32:53.815Z,30.23
2019-04-21T02:35:30.295Z,28.50
2019-04-21T02:38:03.786Z,31.82
2019-04-21T02:40:38.935Z,27.67
2019-04-21T02:43:11.341Z,32.45
2019-04-21T02:45:53.698Z,32.98
2019-04-21T02:50:57.713Z,32.00
2019-04-21T02:54:07.376Z,29.20
2019-04-21T02:56:17.995Z,28.12
2019-04-21T03:01:50.332Z,29.10
2019-04-21T03:04:43.096Z,28.77
2019-04-21T03:07:21.610Z,28.75
2019-04-21T03:09:59.755Z,31.95
2019-04-21T03:12:35.533Z,30.90
2019-04-21T03:15:25.522Z,31.33
2019-04-21T03:18:38.045Z,34.92
2019-04-21T03:23:07.697Z,29.23
2019-04-21T03:28:14.173Z,34.40
2019-04-21T03:41:21.457Z,38.73
2019-04-21T03:43:50.160Z,36.77
2019-04-21T03:49:11.857Z,33.55
2019-04-21T03:54:15.530Z,41.98
2019-04-21T03:59:25.013Z,33.90
2019-04-21T04:02:47.172Z,41.08
2019-04-21T04:05:20.006Z,32.10
2019-04-21T04:08:08.735Z,32.60
2019-04-21T04:10:34.840Z,30.27
2019-04-21T04:13:14.121Z,36.33
2019-04-21T04:18:44.421Z,35.63
2019-04-21T04:21:05.794Z,40.80
2019-04-21T04:24:02.399Z,34.18
2019-04-21T04:26:19.371Z,32.63
2019-04-21T04:31:35.486Z,29.32
2019-04-21T04:34:04.768Z,32.80
2019-04-21T04:39:43.154Z,28.98
2019-04-21T04:42:35.054Z,24.87
2019-04-21T04:47:37.110Z,30.90
2019-04-21T04:50:09.930Z,33.40
2019-04-21T04:52:48.982Z,34.18
2019-04-21T04:55:26.189Z,45.20
2019-04-21T05:00:43.422Z,104.53
2019-04-21T05:06:46.170Z,99.67
2019-04-21T05:09:21.558Z,92.50
2019-04-21T05:11:48.752Z,96.47
2019-04-21T05:14:21.803Z,76.85
2019-04-21T05:17:02.306Z,88.07
2019-04-21T05:19:38.160Z,66.35
2019-04-21T05:22:11.054Z,64.17
2019-04-21T05:24:36.107Z,65.95
2019-04-21T05:27:29.415Z,54.13
2019-04-21T05:30:17.375Z,66.22
2019-04-21T05:33:05.606Z,58.40
2019-04-21T05:36:04.106Z,56.63
2019-04-21T05:38:53.469Z,61.33
2019-04-21T05:41:20.657Z,72.35
2019-04-21T05:44:12.827Z,56.02
2019-04-21T05:46:49.508Z,59.75
2019-04-21T05:49:42.084Z,56.95
2019-04-21T05:52:08.101Z,54.40
2019-04-21T05:54:57.437Z,54.90
2019-04-21T05:57:31.846Z,57.88
2019-04-21T06:00:08.854Z,55.45
2019-04-21T06:02:43.788Z,52.93
2019-04-21T06:08:03.758Z,74.32
2019-04-21T06:10:42.273Z,74.05
2019-04-21T06:13:24.417Z,73.85
2019-04-21T06:18:35.355Z,79.10
2019-04-21T06:21:07.206Z,74.50
2019-04-21T06:23:36.779Z,81.05
2019-04-21T06:26:27.996Z,65.37
2019-04-21T06:28:50.404Z,75.42
2019-04-21T06:31:57.398Z,65.60
2019-04-21T06:34:06.757Z,61.70
2019-04-21T06:36:52.702Z,54.20
2019-04-21T06:39:24.154Z,49.95
2019-04-21T06:41:53.110Z,51.00
2019-04-21T06:44:33.064Z,49.85
2019-04-21T06:47:23.230Z,50.10
2019-04-21T06:49:44.392Z,44.58
2019-04-21T06:52:34.791Z,47.08
2019-04-21T06:55:03.145Z,42.78
2019-04-21T06:57:34.775Z,48.63
2019-04-21T07:00:07.407Z,48.20
2019-04-21T07:03:08.349Z,43.90
2019-04-21T07:05:26.336Z,70.90
2019-04-21T07:08:14.921Z,62.75
2019-04-21T07:10:31.819Z,53.08
2019-04-21T07:13:07.933Z,54.20
2019-04-21T07:16:02.838Z,62.67
2019-04-21T07:18:31.431Z,52.05
2019-04-21T07:21:00.054Z,57.95
2019-04-21T07:23:39.971Z,49.05
2019-04-21T07:26:14.763Z,48.90
2019-04-21T07:28:49.882Z,38.35
2019-04-21T07:31:24.962Z,43.50
2019-04-21T07:34:01.577Z,43.63
2019-04-21T07:39:06.219Z,36.83
2019-04-21T07:41:44.050Z,35.43
2019-04-21T07:44:17.027Z,37.70
2019-04-21T07:46:50.519Z,37.28
2019-04-21T07:49:57.371Z,39.45
2019-04-21T07:52:53.207Z,32.08
2019-04-21T07:57:57.196Z,32.65
2019-04-21T08:00:45.083Z,31.02
2019-04-21T08:03:14.137Z,28.65
2019-04-21T08:05:53.723Z,31.27
2019-04-21T08:08:26.566Z,34.95
2019-04-21T08:11:03.710Z,32.25
2019-04-21T08:13:42.975Z,27.37
2019-04-21T08:16:17.253Z,25.12
2019-04-21T08:18:52.421Z,30.57
2019-04-21T08:21:28.291Z,27.07
2019-04-21T08:23:59.682Z,25.43
2019-04-21T08:26:45.200Z,26.52
2019-04-21T08:29:25.839Z,24.95
2019-04-21T08:32:08.084Z,29.45
2019-04-21T08:37:08.902Z,28.65
2019-04-21T08:39:51.798Z,25.97
2019-04-21T08:42:21.608Z,25.30
2019-04-21T08:44:52.445Z,31.10
2019-04-21T08:47:25.650Z,26.93
2019-04-21T08:50:02.157Z,23.40
2019-04-21T08:52:44.479Z,26.70
2019-04-21T08:55:25.362Z,25.25
2019-04-21T08:58:25.668Z,31.40
2019-04-21T09:01:01.801Z,25.72
2019-04-21T09:03:51.956Z,24.67
2019-04-21T09:06:50.045Z,20.55
2019-04-21T09:09:03.660Z,23.90
2019-04-21T09:11:40.440Z,25.75
2019-04-21T09:14:20.766Z,21.90
2019-04-21T09:16:52.837Z,24.30
2019-04-21T09:19:38.626Z,25.70
2019-04-21T09:22:05.745Z,20.00
2019-04-21T09:24:42.708Z,16.67
2019-04-21T09:27:15.295Z,21.73
2019-04-21T09:29:40.623Z,20.52
2019-04-21T09:32:16.621Z,23.40
2019-04-21T09:34:48.934Z,22.30
2019-04-21T09:37:32.985Z,23.12
2019-04-21T09:40:00.908Z,19.80
2019-04-21T09:42:44.365Z,23.35
2019-04-21T09:45:14.291Z,21.35
2019-04-21T09:47:59.064Z,21.93
2019-04-21T09:50:24.646Z,18.25
2019-04-21T09:53:10.457Z,19.70
2019-04-21T09:55:45.246Z,26.02
2019-04-21T09:58:23.219Z,19.85
2019-04-21T10:01:01.478Z,26.07
2019-04-21T10:03:24.227Z,29.85
2019-04-21T10:05:58.759Z,23.50
2019-04-21T10:08:34.181Z,24.27
2019-04-21T10:11:09.865Z,24.47
2019-04-21T10:13:44.330Z,25.20
2019-04-21T10:16:38.272Z,26.55
2019-04-21T10:19:13.327Z,25.27
2019-04-21T10:21:50.148Z,26.52
2019-04-21T10:24:24.569Z,23.32
2019-04-21T10:26:59.062Z,21.42
2019-04-21T10:29:35.789Z,20.05
2019-04-21T10:32:09.360Z,19.55
2019-04-21T10:34:43.710Z,17.92
2019-04-21T10:37:18.800Z,16.85
2019-04-21T10:39:53.859Z,17.87
2019-04-21T10:42:29.108Z,15.28
2019-04-21T10:45:03.605Z,16.73
2019-04-21T10:47:38.859Z,16.67
2019-04-21T10:50:13.488Z,15.30
2019-04-21T10:53:09.292Z,16.12
2019-04-21T10:55:56.690Z,15.65
2019-04-21T10:58:38.382Z,14.70
2019-04-21T11:01:16.675Z,18.37
2019-04-21T11:04:29.019Z,20.48
2019-04-21T11:07:06.673Z,17.95
2019-04-21T11:09:34.155Z,33.78
2019-04-21T11:12:08.540Z,23.02
2019-04-21T11:14:43.092Z,17.70
2019-04-21T11:17:18.217Z,20.52
2019-04-21T11:19:54.861Z,20.80
2019-04-21T11:22:31.026Z,17.27
2019-04-21T11:25:07.004Z,15.72
2019-04-21T11:27:42.923Z,18.42
2019-04-21T11:30:17.807Z,14.73
2019-04-21T11:32:53.116Z,12.18
2019-04-21T11:35:27.780Z,17.98
2019-04-21T11:38:14.493Z,14.53
2019-04-21T11:40:45.541Z,13.60
2019-04-21T11:43:19.978Z,14.55
2019-04-21T11:45:54.754Z,18.07
2019-04-21T11:48:30.532Z,12.43
2019-04-21T11:51:04.925Z,14.53
2019-04-21T11:53:39.195Z,11.18
2019-04-21T11:56:14.625Z,13.62
2019-04-21T11:58:49.955Z,12.28
2019-04-21T12:01:25.685Z,12.15
2019-04-21T12:04:00.023Z,12.73
2019-04-21T12:06:40.935Z,12.45
2019-04-21T12:09:11.771Z,11.80
2019-04-21T12:11:47.412Z,13.43
2019-04-21T12:14:21.798Z,14.63
2019-04-21T12:16:57.186Z,11.18
2019-04-21T12:19:32.589Z,9.88
2019-04-21T12:22:17.560Z,13.22
2019-04-21T12:24:44.897Z,13.65
2019-04-21T12:27:20.355Z,10.50
2019-04-21T12:29:55.512Z,13.05
2019-04-21T12:32:40.182Z,11.63
2019-04-21T12:35:15.756Z,10.82
2019-04-21T12:37:51.073Z,10.68
2019-04-21T12:40:26.411Z,13.18
2019-04-21T12:43:00.944Z,14.43
2019-04-21T12:45:35.904Z,11.15
2019-04-21T12:48:10.557Z,11.05
2019-04-21T12:50:45.797Z,12.30
2019-04-21T12:53:21.435Z,9.83
2019-04-21T12:55:55.797Z,16.48
2019-04-21T12:58:31.127Z,11.30
2019-04-21T13:01:05.366Z,12.03
2019-04-21T13:03:39.833Z,9.90
2019-04-21T13:06:14.161Z,10.53
2019-04-21T13:08:56.863Z,12.10
2019-04-21T13:11:25.514Z,11.90
2019-04-21T13:13:59.888Z,12.58
2019-04-21T13:16:35.557Z,18.27
2019-04-21T13:19:09.608Z,14.45
2019-04-21T13:21:43.776Z,14.50
2019-04-21T13:24:17.918Z,11.48
2019-04-21T13:26:58.097Z,21.27
2019-04-21T13:29:30.184Z,18.05
2019-04-21T13:32:05.491Z,18.12
2019-04-21T13:34:42.095Z,22.15
2019-04-21T13:37:17.332Z,18.35
2019-04-21T13:40:34.157Z,37.70
2019-04-21T13:42:58.590Z,23.95
2019-04-21T13:45:32.167Z,30.05
2019-04-21T13:48:06.622Z,34.48
2019-04-21T13:50:41.433Z,35.98
2019-04-21T13:53:16.639Z,61.05
2019-04-21T13:55:52.618Z,41.70
2019-04-21T13:58:28.168Z,43.50
2019-04-21T14:01:03.541Z,46.20
2019-04-21T14:03:37.913Z,45.90
2019-04-21T14:06:12.166Z,52.15
2019-04-21T14:08:54.720Z,45.83
2019-04-21T14:11:29.263Z,46.08
2019-04-21T14:14:03.252Z,38.55
2019-04-21T14:16:38.182Z,37.80
2019-04-21T14:19:13.139Z,37.17
2019-04-21T14:21:49.880Z,35.92
2019-04-21T14:24:22.968Z,29.35
2019-04-21T14:26:58.324Z,33.30
2019-04-21T14:29:33.472Z,26.77
2019-04-21T14:32:08.374Z,29.75
2019-04-21T14:34:44.095Z,29.92
2019-04-21T14:37:20.459Z,36.42
2019-04-21T14:40:01.877Z,33.20
2019-04-21T14:42:32.012Z,29.32
2019-04-21T14:45:07.329Z,33.05
2019-04-21T14:48:04.995Z,32.15
2019-04-21T14:51:11.218Z,34.30
2019-04-21T14:54:02.010Z,27.75
2019-04-21T14:56:37.481Z,31.50
2019-04-21T14:59:12.948Z,27.13
2019-04-21T15:01:47.208Z,26.90
2019-04-21T15:04:22.379Z,29.10
2019-04-21T15:06:57.400Z,27.13
2019-04-21T15:09:32.309Z,34.23
2019-04-21T15:12:08.005Z,29.48
2019-04-21T15:14:42.553Z,29.00
2019-04-21T15:17:19.530Z,31.80
2019-04-21T15:20:00.721Z,38.73
2019-04-21T15:22:30.339Z,29.63
2019-04-21T15:25:05.860Z,31.60
2019-04-21T15:27:41.137Z,30.65
2019-04-21T15:30:16.465Z,36.15
2019-04-21T15:32:50.918Z,30.35
2019-04-21T15:35:26.962Z,36.77
2019-04-21T15:38:02.069Z,32.55
2019-04-21T15:40:44.636Z,31.68
2019-04-21T15:43:12.645Z,31.35
2019-04-21T15:45:46.964Z,26.90
2019-04-21T15:48:22.326Z,32.45
2019-04-21T15:50:58.871Z,28.40
2019-04-21T15:53:34.200Z,30.35
2019-04-21T15:56:28.872Z,28.90
2019-04-21T15:59:30.587Z,28.98
2019-04-21T16:02:22.361Z,33.00
2019-04-21T16:04:56.831Z,28.60
2019-04-21T16:07:31.892Z,27.70
2019-04-21T16:10:09.887Z,30.62
2019-04-21T16:12:43.638Z,29.30
2019-04-21T16:15:18.850Z,25.37
2019-04-21T16:17:53.358Z,29.00
2019-04-21T16:20:28.171Z,29.27
2019-04-21T16:23:02.428Z,31.70
2019-04-21T16:25:36.997Z,28.87
2019-04-21T16:28:11.483Z,29.70
2019-04-21T16:30:46.580Z,27.58
2019-04-21T16:33:21.090Z,29.37
2019-04-21T16:35:56.008Z,29.48
2019-04-21T16:38:31.424Z,28.30
2019-04-21T16:41:09.197Z,29.25
2019-04-21T16:43:43.013Z,29.00
2019-04-21T16:46:17.877Z,27.95
2019-04-21T16:48:53.478Z,32.45
2019-04-21T16:51:28.471Z,31.05
2019-04-21T16:54:08.330Z,42.75
2019-04-21T16:56:52.118Z,36.95
2019-04-21T16:59:32.566Z,40.78
2019-04-21T17:02:07.115Z,58.38
2019-04-21T17:04:42.511Z,65.95
2019-04-21T17:07:17.929Z,62.35
2019-04-21T17:09:52.718Z,57.10
2019-04-21T17:12:28.751Z,50.25
2019-04-21T17:15:18.941Z,39.90
2019-04-21T17:18:00.214Z,44.65
2019-04-21T17:20:29.944Z,46.68
2019-04-21T17:22:51.506Z,49.67
2019-04-21T17:25:27.833Z,49.20
2019-04-21T17:28:01.944Z,43.23
2019-04-21T17:30:36.701Z,39.42
2019-04-21T17:33:16.041Z,38.70
2019-04-21T17:35:47.327Z,42.50
2019-04-21T17:38:21.885Z,33.70
2019-04-21T17:41:11.052Z,40.48
2019-04-21T17:43:32.265Z,39.55
2019-04-21T17:46:06.916Z,35.08
2019-04-21T17:48:42.871Z,36.05
2019-04-21T17:51:25.822Z,40.10
2019-04-21T17:54:13.652Z,34.83
2019-04-21T17:57:05.550Z,41.63
2019-04-21T17:59:50.881Z,44.48
2019-04-21T18:02:11.040Z,40.30
2019-04-21T18:04:49.261Z,41.92
2019-04-21T18:07:31.543Z,31.57
2019-04-21T18:10:15.939Z,39.70
2019-04-21T18:12:36.160Z,37.58
2019-04-21T18:15:17.583Z,34.98
2019-04-21T18:17:34.551Z,30.85
2019-04-21T18:20:10.031Z,33.30
2019-04-21T18:23:15.356Z,34.40
2019-04-21T18:25:53.949Z,32.30
2019-04-21T18:28:20.775Z,35.50
2019-04-21T18:31:16.425Z,33.23
2019-04-21T18:34:13.876Z,35.90
2019-04-21T18:36:52.142Z,37.70
2019-04-21T18:39:53.619Z,37.25
2019-04-21T18:42:42.134Z,43.95
2019-04-21T18:45:48.027Z,42.73
2019-04-21T18:48:41.208Z,45.70
2019-04-21T18:51:32.722Z,43.42
2019-04-21T18:54:31.349Z,40.52
2019-04-21T18:56:53.618Z,69.03
2019-04-21T18:59:27.069Z,56.77
2019-04-21T19:02:02.447Z,56.42
2019-04-21T19:04:35.190Z,51.83
2019-04-21T19:07:19.863Z,42.58
2019-04-21T19:10:20.510Z,35.68
2019-04-21T19:13:05.986Z,38.15
2019-04-21T19:15:17.847Z,37.08
2019-04-21T19:18:16.999Z,36.60
2019-04-21T19:20:31.105Z,34.58
2019-04-21T19:23:00.310Z,29.40
2019-04-21T19:25:45.130Z,40.03
2019-04-21T19:28:16.282Z,34.05
2019-04-21T19:30:57.507Z,32.58
2019-04-21T19:33:27.026Z,32.45
2019-04-21T19:35:47.486Z,32.08
2019-04-21T19:38:31.719Z,30.12
2019-04-21T19:41:15.608Z,34.78
2019-04-21T19:43:53.670Z,31.77
2019-04-21T19:46:30.649Z,29.92
2019-04-21T19:49:13.470Z,32.48
2019-04-21T19:51:37.772Z,29.82
2019-04-21T19:54:12.627Z,30.92
2019-04-21T19:56:38.498Z,29.75
2019-04-21T19:59:18.572Z,33.23
2019-04-21T20:01:49.958Z,30.25
2019-04-21T20:04:34.387Z,27.60
2019-04-21T20:07:17.396Z,28.45
2019-04-21T20:09:55.899Z,30.40
2019-04-21T20:12:36.585Z,36.45
2019-04-21T20:15:23.248Z,38.13
2019-04-21T20:17:42.441Z,36.70
2019-04-21T20:20:03.746Z,30.80
2019-04-21T20:22:42.278Z,38.00
2019-04-21T20:25:19.061Z,34.13
2019-04-21T20:27:59.069Z,30.75
2019-04-21T20:30:42.474Z,28.67
2019-04-21T20:33:41.629Z,29.48
2019-04-21T20:38:28.870Z,31.87
2019-04-21T20:40:59.794Z,29.70
2019-04-21T20:43:47.156Z,26.10
2019-04-21T20:46:15.619Z,28.75
2019-04-21T20:48:52.320Z,27.25
2019-04-21T20:51:36.243Z,28.15
2019-04-21T20:54:07.449Z,29.18
2019-04-21T20:56:42.020Z,25.77
2019-04-21T20:59:19.418Z,24.92
2019-04-21T21:01:57.911Z,24.98
2019-04-21T21:04:27.987Z,27.27
2019-04-21T21:07:25.556Z,25.70
2019-04-21T21:09:54.506Z,25.00
2019-04-21T21:12:34.314Z,24.90
2019-04-21T21:14:54.038Z,26.57
2019-04-21T21:20:16.362Z,28.52
2019-04-21T21:22:43.927Z,27.30
2019-04-21T21:25:36.626Z,27.48
2019-04-21T21:27:55.256Z,23.83
2019-04-21T21:30:34.809Z,24.18
2019-04-21T21:33:17.149Z,26.23
2019-04-21T21:35:41.507Z,25.32
2019-04-21T21:38:28.219Z,25.40
2019-04-21T21:40:57.370Z,22.75
2019-04-21T21:43:24.798Z,28.00
2019-04-21T21:46:02.650Z,25.32
2019-04-21T21:48:48.945Z,24.72
2019-04-21T21:51:19.188Z,23.27
2019-04-21T21:53:45.969Z,22.52
2019-04-21T21:56:20.607Z,23.87
2019-04-21T21:58:56.965Z,23.77
2019-04-21T22:01:38.009Z,26.40
2019-04-21T22:04:13.295Z,22.30
2019-04-21T22:06:50.692Z,23.50
2019-04-21T22:09:19.868Z,22.07
2019-04-21T22:11:57.841Z,26.73
2019-04-21T22:14:37.189Z,24.05
2019-04-21T22:17:21.417Z,25.05
2019-04-21T22:20:05.320Z,23.42
2019-04-21T22:22:32.469Z,23.15
2019-04-21T22:25:04.539Z,22.48
2019-04-21T22:27:30.798Z,21.17
2019-04-21T22:30:09.002Z,24.12
2019-04-21T22:32:50.276Z,21.45
2019-04-21T22:35:27.307Z,27.52
2019-04-21T22:38:10.192Z,21.07
2019-04-21T22:40:46.616Z,24.45
2019-04-21T22:43:19.814Z,24.67
2019-04-21T22:45:45.229Z,23.90
2019-04-21T22:48:22.783Z,21.10
2019-04-21T22:50:56.207Z,21.87
2019-04-21T22:53:37.440Z,21.85
2019-04-21T22:56:14.939Z,23.05
2019-04-21T22:58:44.455Z,21.87
2019-04-21T23:01:26.751Z,21.55
2019-04-21T23:03:59.242Z,22.65
2019-04-21T23:06:34.360Z,25.30
2019-04-21T23:09:11.059Z,23.55
2019-04-21T23:11:49.187Z,22.10
2019-04-21T23:14:21.570Z,21.52
2019-04-21T23:17:14.935Z,23.73
2019-04-21T23:19:46.043Z,19.07
2019-04-21T23:22:31.276Z,25.23
2019-04-21T23:25:09.441Z,21.07
2019-04-21T23:27:38.744Z,21.70
2019-04-21T23:30:25.833Z,23.52
2019-04-21T23:32:47.880Z,24.72
2019-04-21T23:35:19.637Z,22.73
2019-04-21T23:37:55.694Z,22.48
2019-04-21T23:40:27.848Z,20.52
2019-04-21T23:43:09.699Z,28.67
2019-04-21T23:45:40.900Z,23.45
2019-04-21T23:48:27.137Z,24.52
2019-04-21T23:50:55.089Z,26.07
2019-04-21T23:53:23.981Z,36.95
2019-04-21T23:55:59.212Z,27.65
2019-04-21T23:58:36.250Z,24.98
